createdAt,value
2019-04-11T00:01:36.794Z,102288.23
2019-04-11T00:03:59.857Z,102292.64
2019-04-11T00:06:29.774Z,102294.86
2019-04-11T00:09:00.597Z,102297.36
2019-04-11T00:11:30.277Z,102299.75
2019-04-11T00:16:28.915Z,102308.97
2019-04-11T00:18:58.910Z,102304.66
2019-04-11T00:21:28.842Z,102313.33
2019-04-11T00:23:58.644Z,102309.46
2019-04-11T00:26:28.557Z,102318.70
2019-04-11T00:28:58.387Z,102313.20
2019-04-11T00:31:28.533Z,102319.45
2019-04-11T00:33:58.450Z,102327.53
2019-04-11T00:36:28.443Z,102327.94
2019-04-11T00:38:57.955Z,102322.55
2019-04-11T00:41:28.098Z,102323.41
2019-04-11T00:43:58.632Z,102327.06
2019-04-11T00:46:28.676Z,102324.37
2019-04-11T00:48:58.466Z,102328.80
2019-04-11T00:51:27.929Z,102326.47
2019-04-11T00:53:58.336Z,102326.87
2019-04-11T00:56:28.410Z,102325.52
2019-04-11T00:58:58.310Z,102322.72
2019-04-11T01:01:28.496Z,102331.47
2019-04-11T01:03:59.114Z,102316.06
2019-04-11T01:06:28.684Z,102314.23
2019-04-11T01:08:58.138Z,102316.82
2019-04-11T01:11:27.930Z,102317.33
2019-04-11T01:13:57.444Z,102321.73
2019-04-11T01:17:01.495Z,102295.41
2019-04-11T01:19:31.047Z,102321.70
2019-04-11T01:22:01.241Z,102319.29
2019-04-11T01:24:31.496Z,102319.96
2019-04-11T01:27:01.502Z,102326.22
2019-04-11T01:29:31.423Z,102321.59
2019-04-11T01:32:04.266Z,102323.13
2019-04-11T01:34:34.893Z,102322.54
2019-04-11T01:37:04.667Z,102323.77
2019-04-11T01:39:43.373Z,102324.53
2019-04-11T01:42:13.262Z,102330.23
2019-04-11T01:44:43.007Z,102325.20
2019-04-11T01:47:15.731Z,102323.85
2019-04-11T01:49:46.208Z,102325.95
2019-04-11T01:52:15.672Z,102330.39
2019-04-11T01:54:45.993Z,102329.64
2019-04-11T01:57:15.930Z,102329.24
2019-04-11T01:59:45.881Z,102337.33
2019-04-11T02:02:37.124Z,102337.72
2019-04-11T02:05:21.634Z,102334.44
2019-04-11T02:07:51.197Z,102330.88
2019-04-11T02:10:21.042Z,102334.44
2019-04-11T02:12:51.119Z,102334.05
2019-04-11T02:15:21.952Z,102338.76
2019-04-11T02:17:51.818Z,102334.40
2019-04-11T02:20:21.338Z,102334.11
2019-04-11T02:22:55.595Z,102336.13
2019-04-11T02:25:59.519Z,102332.00
2019-04-11T02:28:31.536Z,102335.06
2019-04-11T02:31:02.894Z,102335.94
2019-04-11T02:33:32.950Z,102339.86
2019-04-11T02:36:04.733Z,102343.34
2019-04-11T02:38:34.764Z,102340.13
2019-04-11T02:41:08.568Z,102344.58
2019-04-11T02:43:40.093Z,102351.31
2019-04-11T02:46:16.850Z,102353.90
2019-04-11T02:48:40.647Z,102349.38
2019-04-11T02:51:12.254Z,102361.15
2019-04-11T02:53:41.873Z,102350.45
2019-04-11T02:56:12.579Z,102354.48
2019-04-11T02:58:44.011Z,102351.31
2019-04-11T03:01:13.541Z,102358.06
2019-04-11T03:03:43.117Z,102350.36
2019-04-11T03:06:12.711Z,102355.55
2019-04-11T03:08:43.522Z,102351.11
2019-04-11T03:11:14.376Z,102358.34
2019-04-11T03:13:46.512Z,102362.50
2019-04-11T03:16:29.591Z,102367.50
2019-04-11T03:19:05.645Z,102364.80
2019-04-11T03:21:21.900Z,102365.55
2019-04-11T03:23:51.367Z,102365.95
2019-04-11T03:26:21.604Z,102367.30
2019-04-11T03:28:55.583Z,102377.41
2019-04-11T03:34:39.328Z,102371.50
2019-04-11T03:39:15.500Z,102379.72
2019-04-11T03:41:48.777Z,102366.70
2019-04-11T03:44:10.116Z,102375.78
2019-04-11T03:46:48.181Z,102383.00
2019-04-11T03:49:16.473Z,102378.56
2019-04-11T03:51:34.546Z,102386.27
2019-04-11T03:54:07.437Z,102381.46
2019-04-11T03:56:37.247Z,102390.90
2019-04-11T03:59:10.329Z,102385.14
2019-04-11T04:01:39.873Z,102386.97
2019-04-11T04:04:11.295Z,102390.54
2019-04-11T04:06:43.269Z,102386.97
2019-04-11T04:09:13.209Z,102393.23
2019-04-11T04:11:46.765Z,102388.32
2019-04-11T04:14:28.620Z,102386.37
2019-04-11T04:17:17.060Z,102391.77
2019-04-11T04:20:19.449Z,102399.27
2019-04-11T04:23:10.289Z,102395.14
2019-04-11T04:25:42.630Z,102398.20
2019-04-11T04:28:11.782Z,102402.36
2019-04-11T04:30:43.325Z,102401.88
2019-04-11T04:33:14.447Z,102399.94
2019-04-11T04:35:44.769Z,102407.83
2019-04-11T04:38:15.734Z,102407.72
2019-04-11T04:41:00.668Z,102407.13
2019-04-11T04:43:20.336Z,102413.03
2019-04-11T04:46:08.626Z,102407.91
2019-04-11T04:48:24.645Z,102221.77
2019-04-11T04:50:55.035Z,102424.26
2019-04-11T04:53:27.698Z,102422.23
2019-04-11T04:55:54.918Z,102423.94
2019-04-11T04:58:26.251Z,102425.20
2019-04-11T05:00:56.757Z,102420.17
2019-04-11T05:03:27.003Z,102427.19
2019-04-11T05:05:58.228Z,102427.70
2019-04-11T05:08:27.748Z,102422.51
2019-04-11T05:10:57.885Z,102433.02
2019-04-11T05:13:27.928Z,102430.52
2019-04-11T05:16:08.473Z,102426.28
2019-04-11T05:18:29.848Z,102435.45
2019-04-11T05:20:59.550Z,102434.97
2019-04-11T05:23:29.776Z,102434.38
2019-04-11T05:26:00.164Z,102438.02
2019-04-11T05:28:31.781Z,102445.33
2019-04-11T05:31:02.578Z,102445.00
2019-04-11T05:33:32.135Z,102441.62
2019-04-11T05:36:01.679Z,102447.30
2019-04-11T05:38:31.188Z,102445.75
2019-04-11T05:41:00.701Z,102446.14
2019-04-11T05:43:36.632Z,102452.89
2019-04-11T05:46:04.483Z,102451.42
2019-04-11T05:48:47.448Z,102457.70
2019-04-11T05:51:21.239Z,102461.63
2019-04-11T05:53:49.999Z,102458.05
2019-04-11T05:56:23.642Z,102461.34
2019-04-11T05:58:53.713Z,102464.84
2019-04-11T06:01:36.413Z,102461.27
2019-04-11T06:04:15.302Z,102464.76
2019-04-11T06:06:52.836Z,102464.17
2019-04-11T06:09:30.254Z,102466.27
2019-04-11T06:12:21.727Z,102462.61
2019-04-11T06:14:59.706Z,102466.06
2019-04-11T06:17:30.144Z,102470.98
2019-04-11T06:20:25.506Z,102469.64
2019-04-11T06:23:14.926Z,102470.87
2019-04-11T06:26:06.101Z,102474.52
2019-04-11T06:28:36.113Z,102484.76
2019-04-11T06:31:27.467Z,102487.94
2019-04-11T06:34:02.545Z,102492.38
2019-04-11T06:37:03.579Z,102489.44
2019-04-11T06:39:57.772Z,102493.41
2019-04-11T06:42:39.262Z,102492.54
2019-04-11T06:45:34.143Z,102495.13
2019-04-11T06:48:21.927Z,102490.51
2019-04-11T06:51:01.839Z,102496.22
2019-04-11T06:53:34.939Z,102497.84
2019-04-11T06:56:23.423Z,102497.13
2019-04-11T06:58:56.783Z,102506.65
2019-04-11T07:01:29.959Z,102504.62
2019-04-11T07:04:06.023Z,102506.72
2019-04-11T07:06:37.795Z,102506.12
2019-04-11T07:09:28.624Z,102509.70
2019-04-11T07:12:03.503Z,102513.86
2019-04-11T07:14:45.511Z,102515.78
2019-04-11T07:17:33.906Z,102514.55
2019-04-11T07:20:21.375Z,102516.30
2019-04-11T07:23:08.553Z,102524.27
2019-04-11T07:26:00.373Z,102520.11
2019-04-11T07:29:04.638Z,102520.98
2019-04-11T07:31:46.266Z,102521.77
2019-04-11T07:34:43.754Z,102518.55
2019-04-11T07:37:30.865Z,102524.34
2019-04-11T07:40:26.815Z,102517.59
2019-04-11T07:43:18.461Z,102526.84
2019-04-11T07:46:26.883Z,102528.55
2019-04-11T07:49:08.323Z,102536.09
2019-04-11T07:51:42.922Z,102539.87
2019-04-11T07:54:18.055Z,102538.60
2019-04-11T07:56:55.122Z,102557.62
2019-04-11T07:59:31.784Z,102541.90
2019-04-11T08:02:29.560Z,102542.77
2019-04-11T08:05:16.865Z,102543.25
2019-04-11T08:08:06.265Z,102546.91
2019-04-11T08:10:41.468Z,102177.61
2019-04-11T08:13:15.069Z,102546.27
2019-04-11T08:16:15.660Z,102547.23
2019-04-11T08:19:10.695Z,102549.92
2019-04-11T08:22:06.309Z,102550.32
2019-04-11T08:24:42.651Z,102547.02
2019-04-11T08:27:29.506Z,102543.73
2019-04-11T08:30:00.370Z,102548.92
2019-04-11T08:32:51.866Z,102550.95
2019-04-11T08:35:53.661Z,102540.02
2019-04-11T08:38:29.108Z,102545.62
2019-04-11T08:41:03.129Z,102542.52
2019-04-11T08:43:33.691Z,102542.04
2019-04-11T08:46:13.057Z,102544.27
2019-04-11T08:48:45.742Z,102543.75
2019-04-11T08:51:16.888Z,102548.31
2019-04-11T08:54:15.447Z,102547.92
2019-04-11T08:56:47.311Z,102553.72
2019-04-11T08:59:35.858Z,102556.98
2019-04-11T09:02:06.863Z,102557.86
2019-04-11T09:05:11.990Z,102554.88
2019-04-11T09:07:56.584Z,102559.89
2019-04-11T09:10:49.170Z,102556.23
2019-04-11T09:13:38.105Z,102550.70
2019-04-11T09:16:25.764Z,102551.02
2019-04-11T09:18:59.613Z,102561.98
2019-04-11T09:21:48.720Z,102559.67
2019-04-11T09:24:30.734Z,102560.51
2019-04-11T09:27:17.834Z,102562.37
2019-04-11T09:29:52.443Z,102569.48
2019-04-11T09:32:46.532Z,102567.38
2019-04-11T09:35:24.338Z,102563.33
2019-04-11T09:37:53.973Z,102563.80
2019-04-11T09:40:41.666Z,102566.51
2019-04-11T09:43:17.797Z,102563.72
2019-04-11T09:46:06.196Z,102562.37
2019-04-11T09:48:53.814Z,102560.91
2019-04-11T09:51:45.345Z,102568.05
2019-04-11T09:54:23.986Z,102573.33
2019-04-11T09:57:28.941Z,102576.03
2019-04-11T10:00:26.857Z,102575.64
2019-04-11T10:03:13.200Z,102573.33
2019-04-11T10:06:00.415Z,102583.75
2019-04-11T10:08:44.240Z,102587.44
2019-04-11T10:11:35.602Z,102589.74
2019-04-11T10:14:11.213Z,102577.31
2019-04-11T10:17:06.688Z,102572.44
2019-04-11T10:19:48.431Z,102580.47
2019-04-11T10:22:40.410Z,102584.44
2019-04-11T10:25:16.875Z,102575.30
2019-04-11T10:28:11.353Z,102578.68
2019-04-11T10:30:58.520Z,102584.88
2019-04-11T10:33:59.638Z,102592.73
2019-04-11T10:36:39.053Z,102596.31
2019-04-11T10:39:47.364Z,102597.30
2019-04-11T10:42:18.053Z,102598.65
2019-04-11T10:45:15.860Z,102603.54
2019-04-11T10:47:47.302Z,102606.63
2019-04-11T10:50:38.914Z,102602.11
2019-04-11T10:53:08.937Z,102604.61
2019-04-11T10:56:10.664Z,102608.66
2019-04-11T10:58:47.186Z,102599.56
2019-04-11T11:01:35.846Z,102599.56
2019-04-11T11:04:12.102Z,102596.87
2019-04-11T11:06:42.059Z,102596.87
2019-04-11T11:09:30.476Z,102590.62
2019-04-11T11:12:25.414Z,102588.41
2019-04-11T11:15:29.440Z,102590.11
2019-04-11T11:18:48.735Z,102592.34
2019-04-11T11:21:05.545Z,102584.23
2019-04-11T11:23:52.592Z,102597.73
2019-04-11T11:26:24.812Z,102594.95
2019-04-11T11:29:15.197Z,102605.76
2019-04-11T11:31:54.706Z,102603.53
2019-04-11T11:34:28.496Z,102605.48
2019-04-11T11:37:24.988Z,102608.86
2019-04-11T11:40:18.796Z,102608.19
2019-04-11T11:43:08.567Z,102605.41
2019-04-11T11:45:56.826Z,102607.94
2019-04-11T11:48:41.660Z,102607.73
2019-04-11T11:51:17.272Z,102607.55
2019-04-11T11:54:05.193Z,102600.91
2019-04-11T11:56:36.257Z,102604.56
2019-04-11T11:59:13.293Z,102612.77
2019-04-11T12:01:51.016Z,102616.82
2019-04-11T12:04:40.461Z,102615.08
2019-04-11T12:07:12.668Z,102620.95
2019-04-11T12:10:00.718Z,102619.13
2019-04-11T12:12:42.118Z,102619.13
2019-04-11T12:15:30.326Z,102614.68
2019-04-11T12:18:16.754Z,102614.31
2019-04-11T12:20:51.384Z,102620.19
2019-04-11T12:23:44.740Z,102624.72
2019-04-11T12:26:05.389Z,102618.45
2019-04-11T12:28:52.678Z,102614.80
2019-04-11T12:31:22.323Z,102616.14
2019-04-11T12:34:10.256Z,102616.14
2019-04-11T12:36:44.635Z,102612.97
2019-04-11T12:39:35.798Z,102615.67
2019-04-11T12:42:12.550Z,102616.14
2019-04-11T12:45:00.219Z,102612.58
2019-04-11T12:47:38.303Z,102615.67
2019-04-11T12:50:30.217Z,102616.54
2019-04-11T12:53:11.312Z,102614.31
2019-04-11T12:56:05.758Z,102614.68
2019-04-11T12:58:41.666Z,102612.38
2019-04-11T13:01:38.198Z,102605.52
2019-04-11T13:04:25.441Z,102609.77
2019-04-11T13:07:16.816Z,102609.09
2019-04-11T13:09:58.333Z,102609.77
2019-04-11T13:12:46.091Z,102520.70
2019-04-11T13:15:46.510Z,102614.02
2019-04-11T13:18:44.676Z,102610.33
2019-04-11T13:21:16.252Z,102615.25
2019-04-11T13:24:24.541Z,102617.95
2019-04-11T13:27:31.409Z,102617.95
2019-04-11T13:30:30.696Z,102613.50
2019-04-11T13:36:36.399Z,102617.78
2019-04-11T13:39:17.994Z,102616.52
2019-04-11T13:42:00.915Z,102620.96
2019-04-11T13:44:34.630Z,102623.19
2019-04-11T13:47:31.826Z,102623.66
2019-04-11T13:50:04.290Z,102619.50
2019-04-11T13:52:49.645Z,102619.13
2019-04-11T13:55:30.592Z,102615.56
2019-04-11T13:58:34.454Z,102615.56
2019-04-11T14:01:15.181Z,102614.69
2019-04-11T14:04:08.713Z,102608.42
2019-04-11T14:12:42.857Z,102606.31
2019-04-11T14:15:15.799Z,102614.60
2019-04-11T14:21:28.081Z,102616.34
2019-04-11T14:24:17.998Z,102611.61
2019-04-11T14:26:49.806Z,102615.89
2019-04-11T14:29:41.531Z,102616.56
2019-04-11T14:32:26.065Z,102611.36
2019-04-11T14:35:23.358Z,102615.88
2019-04-11T14:38:11.943Z,102610.20
2019-04-11T14:41:01.803Z,102617.05
2019-04-11T14:43:35.885Z,102619.36
2019-04-11T14:46:36.686Z,102621.30
2019-04-11T14:50:11.858Z,102617.73
2019-04-11T14:53:06.926Z,102617.84
2019-04-11T14:56:14.640Z,102615.22
2019-04-11T14:58:59.352Z,102615.33
2019-04-11T15:01:28.985Z,102626.13
2019-04-11T15:04:17.373Z,102623.54
2019-04-11T15:06:50.171Z,102624.88
2019-04-11T15:10:09.233Z,102629.48
2019-04-11T15:13:11.149Z,102629.48
2019-04-11T15:15:58.227Z,102629.58
2019-04-11T15:18:28.304Z,102636.90
2019-04-11T15:21:26.208Z,102631.41
2019-04-11T15:23:55.780Z,102626.23
2019-04-11T15:27:08.736Z,102620.52
2019-04-11T15:29:40.248Z,102622.45
2019-04-11T15:32:27.390Z,102618.60
2019-04-11T15:35:22.041Z,102619.11
2019-04-11T15:38:09.261Z,102624.50
2019-04-11T15:40:45.793Z,102616.41
2019-04-11T15:43:43.307Z,102616.89
2019-04-11T15:46:26.114Z,102618.71
2019-04-11T15:49:31.416Z,102617.48
2019-04-11T15:52:10.606Z,102612.16
2019-04-11T15:54:55.230Z,102605.41
2019-04-11T16:01:02.477Z,102604.66
2019-04-11T16:03:51.359Z,102606.77
2019-04-11T16:10:15.197Z,102613.03
2019-04-11T16:12:52.732Z,102617.08
2019-04-11T16:15:23.319Z,102618.31
2019-04-11T16:18:10.801Z,102617.25
2019-04-11T16:20:40.647Z,102622.94
2019-04-11T16:23:25.924Z,102622.85
2019-04-11T16:25:54.957Z,102627.58
2019-04-11T16:29:00.234Z,102628.34
2019-04-11T16:34:54.471Z,102638.08
2019-04-11T16:38:00.235Z,102633.55
2019-04-11T16:40:54.122Z,102629.58
2019-04-11T16:43:25.161Z,102627.27
2019-04-11T16:46:24.600Z,102622.65
2019-04-11T16:48:55.663Z,102625.17
2019-04-11T16:51:30.718Z,102624.12
2019-04-11T16:54:13.908Z,102614.87
2019-04-11T16:56:43.880Z,102617.64
2019-04-11T16:59:35.200Z,102618.70
2019-04-11T17:02:04.406Z,102624.69
2019-04-11T17:04:33.924Z,102627.38
2019-04-11T17:07:27.502Z,102630.48
2019-04-11T17:09:57.514Z,102630.95
2019-04-11T17:12:27.314Z,102635.47
2019-04-11T17:14:56.978Z,102632.41
2019-04-11T17:17:26.489Z,102637.41
2019-04-11T17:19:56.100Z,102636.50
2019-04-11T17:22:28.295Z,102636.05
2019-04-11T17:25:06.141Z,102639.19
2019-04-11T17:27:35.848Z,102643.72
2019-04-11T17:30:05.800Z,102647.39
2019-04-11T17:32:57.726Z,102649.54
2019-04-11T17:35:27.345Z,102650.89
2019-04-11T17:41:18.791Z,102653.16
2019-04-11T17:43:51.491Z,102655.80
2019-04-11T17:46:40.137Z,102658.18
2019-04-11T17:49:09.764Z,102659.23
2019-04-11T17:51:42.887Z,102659.90
2019-04-11T17:54:13.362Z,102661.06
2019-04-11T17:56:42.888Z,102661.67
2019-04-11T17:59:12.771Z,102664.00
2019-04-11T18:01:44.150Z,102666.48
2019-04-11T18:04:14.123Z,102671.80
2019-04-11T18:06:46.996Z,102670.92
2019-04-11T18:09:15.400Z,102675.16
2019-04-11T18:11:45.183Z,102667.36
2019-04-11T18:14:14.863Z,102676.66
2019-04-11T18:16:44.475Z,102672.80
2019-04-11T18:19:14.088Z,102673.49
2019-04-11T18:21:43.665Z,102674.04
2019-04-11T18:24:13.535Z,102680.30
2019-04-11T18:26:43.080Z,102679.06
2019-04-11T18:29:12.621Z,102679.43
2019-04-11T18:31:42.242Z,102681.66
2019-04-11T18:34:12.141Z,102678.38
2019-04-11T18:36:41.796Z,102683.77
2019-04-11T18:39:11.763Z,102683.40
2019-04-11T18:41:41.432Z,102684.34
2019-04-11T18:44:11.383Z,102689.85
2019-04-11T18:46:41.095Z,102685.88
2019-04-11T18:49:10.936Z,102692.84
2019-04-11T18:51:40.568Z,102689.81
2019-04-11T18:54:10.199Z,102687.70
2019-04-11T18:56:40.016Z,102691.27
2019-04-11T18:59:09.980Z,102686.83
2019-04-11T19:01:40.170Z,102685.48
2019-04-11T19:04:12.048Z,102686.83
2019-04-11T19:06:43.072Z,102680.48
2019-04-11T19:09:16.744Z,102680.48
2019-04-11T19:11:47.045Z,102677.79
2019-04-11T19:14:16.871Z,102686.17
2019-04-11T19:16:46.938Z,102690.21
2019-04-11T19:19:18.360Z,102688.57
2019-04-11T19:21:50.783Z,102691.45
2019-04-11T19:24:19.056Z,102692.03
2019-04-11T19:26:48.691Z,102692.61
2019-04-11T19:29:18.470Z,102694.14
2019-04-11T19:31:48.153Z,102701.45
2019-04-11T19:34:17.791Z,102700.66
2019-04-11T19:36:47.542Z,102700.28
2019-04-11T19:39:17.583Z,102702.58
2019-04-11T19:41:48.006Z,102704.41
2019-04-11T19:44:19.364Z,102698.72
2019-04-11T19:46:51.087Z,102707.78
2019-04-11T19:49:21.136Z,102705.16
2019-04-11T19:51:51.023Z,102709.30
2019-04-11T19:54:20.761Z,102703.15
2019-04-11T19:56:58.579Z,102701.40
2019-04-11T19:59:28.552Z,102709.59
2019-04-11T20:01:58.061Z,102709.30
2019-04-11T20:04:27.644Z,102716.03
2019-04-11T20:06:57.187Z,102711.59
2019-04-11T20:09:26.929Z,102715.23
2019-04-11T20:11:57.954Z,102715.33
2019-04-11T20:14:28.094Z,102711.77
2019-04-11T20:16:57.773Z,102717.15
2019-04-11T20:19:28.134Z,102718.60
2019-04-11T20:21:57.953Z,102714.09
2019-04-11T20:24:27.840Z,102716.85
2019-04-11T20:26:57.582Z,102724.47
2019-04-11T20:29:27.242Z,102715.61
2019-04-11T20:31:56.847Z,102717.90
2019-04-11T20:34:27.995Z,102739.92
2019-04-11T20:36:57.877Z,102732.66
2019-04-11T20:39:27.430Z,102736.19
2019-04-11T20:41:57.077Z,102737.16
2019-04-11T20:44:27.433Z,102733.59
2019-04-11T20:47:00.193Z,102729.66
2019-04-11T20:49:29.250Z,102733.70
2019-04-11T20:51:58.833Z,102734.23
2019-04-11T20:54:28.478Z,102735.22
2019-04-11T20:56:58.029Z,102734.81
2019-04-11T20:59:34.437Z,102732.59
2019-04-11T21:01:59.109Z,102737.11
2019-04-11T21:04:31.308Z,102732.30
2019-04-11T21:07:02.054Z,102738.96
2019-04-11T21:09:33.240Z,102739.03
2019-04-11T21:12:07.100Z,102745.19
2019-04-11T21:14:33.818Z,102742.60
2019-04-11T21:17:03.419Z,102737.69
2019-04-11T21:19:33.145Z,102744.42
2019-04-11T21:22:02.924Z,102740.85
2019-04-11T21:24:32.502Z,102739.50
2019-04-11T21:27:02.060Z,102737.31
2019-04-11T21:29:31.652Z,102739.58
2019-04-11T21:32:01.683Z,102740.92
2019-04-11T21:34:32.344Z,102744.55
2019-04-11T21:37:02.765Z,102740.05
2019-04-11T21:39:32.410Z,102737.35
2019-04-11T21:42:05.863Z,102736.11
2019-04-11T21:44:35.841Z,102739.17
2019-04-11T21:47:04.391Z,102736.98
2019-04-11T21:49:36.778Z,102744.08
2019-04-11T21:52:05.133Z,102736.48
2019-04-11T21:54:34.748Z,102740.52
2019-04-11T21:57:04.201Z,102744.95
2019-04-11T21:59:33.702Z,102746.30
2019-04-11T22:02:03.368Z,102744.05
2019-04-11T22:04:32.844Z,102742.27
2019-04-11T22:07:02.373Z,102747.98
2019-04-11T22:09:32.995Z,102750.69
2019-04-11T22:12:03.228Z,102752.50
2019-04-11T22:14:32.719Z,102755.20
2019-04-11T22:17:02.646Z,102757.89
2019-04-11T22:19:32.128Z,102753.84
2019-04-11T22:22:01.709Z,102757.41
2019-04-11T22:24:31.237Z,102755.20
2019-04-11T22:27:00.744Z,102760.58
2019-04-11T22:29:30.209Z,102768.66
2019-04-11T22:31:59.762Z,102765.97
2019-04-11T22:34:41.756Z,102773.18
2019-04-11T22:37:11.430Z,102775.03
2019-04-11T22:39:40.908Z,102773.25
2019-04-11T22:42:10.386Z,102773.25
2019-04-11T22:44:40.028Z,102772.37
2019-04-11T22:47:09.480Z,102779.98
2019-04-11T22:49:39.519Z,102777.28
2019-04-11T22:52:11.332Z,102774.19
2019-04-11T22:54:41.814Z,102777.76
2019-04-11T22:57:12.818Z,102780.08
2019-04-11T22:59:44.980Z,102778.73
2019-04-11T23:02:30.863Z,102781.43
2019-04-11T23:05:00.412Z,102781.91
2019-04-11T23:07:29.881Z,102786.88
2019-04-11T23:09:59.332Z,102783.25
2019-04-11T23:12:28.847Z,102788.16
2019-04-11T23:14:58.430Z,102786.41
2019-04-11T23:17:27.938Z,102789.98
2019-04-11T23:19:57.431Z,102790.35
2019-04-11T23:22:27.088Z,102791.33
2019-04-11T23:24:56.570Z,102793.62
2019-04-11T23:27:26.064Z,102794.97
2019-04-11T23:29:55.639Z,102793.62
2019-04-11T23:32:25.269Z,102795.84
2019-04-11T23:34:54.881Z,102802.17
2019-04-11T23:37:24.459Z,102801.33
2019-04-11T23:39:53.960Z,102802.67
2019-04-11T23:42:23.421Z,102802.27
2019-04-11T23:44:52.993Z,102801.87
2019-04-11T23:47:23.013Z,102800.05
2019-04-11T23:49:55.989Z,102804.97
2019-04-11T23:52:26.679Z,102806.78
2019-04-11T23:54:58.239Z,102804.09
2019-04-11T23:57:28.941Z,102806.78
2019-04-11T23:59:59.798Z,102808.12
